createdAt,value
2023-04-08T00:01:20.526Z,99185.55
2023-04-08T00:03:50.464Z,99186.62
2023-04-08T00:06:21.016Z,99187.87
2023-04-08T00:08:49.682Z,99188.08
2023-04-08T00:11:18.093Z,99189.80
2023-04-08T00:13:49.980Z,99190.86
2023-04-08T00:16:18.684Z,99185.90
2023-04-08T00:18:47.943Z,99187.47
2023-04-08T00:21:21.281Z,99182.80
2023-04-08T00:23:50.435Z,99184.14
2023-04-08T00:26:18.680Z,99189.39
2023-04-08T00:28:49.036Z,99186.37
2023-04-08T00:31:17.423Z,99181.66
2023-04-08T00:33:46.402Z,99180.90
2023-04-08T00:44:14.798Z,99187.42
2023-04-08T00:46:42.194Z,99189.02
2023-04-08T00:49:09.792Z,99186.48
2023-04-08T00:51:36.678Z,99188.38
2023-04-08T00:54:04.290Z,99183.92
2023-04-08T00:56:32.121Z,99184.93
2023-04-08T00:58:59.777Z,99182.80
2023-04-08T01:01:45.260Z,99175.67
2023-04-08T01:04:29.652Z,99183.31
2023-04-08T01:07:13.537Z,99174.65
2023-04-08T01:09:54.844Z,99173.90
2023-04-08T01:12:28.476Z,99173.00
2023-04-08T01:15:00.958Z,99170.91
2023-04-08T01:17:28.501Z,99168.51
2023-04-08T01:19:56.616Z,99166.95
2023-04-08T01:22:42.597Z,99171.24
2023-04-08T01:25:16.898Z,99172.79
2023-04-08T01:27:43.991Z,99175.54
2023-04-08T01:30:11.594Z,99174.34
2023-04-08T01:32:38.300Z,99175.71
2023-04-08T01:35:05.678Z,99173.30
2023-04-08T01:37:33.144Z,99176.58
2023-04-08T01:40:00.556Z,99175.36
2023-04-08T01:42:28.241Z,99171.75
2023-04-08T01:44:55.701Z,99175.31
2023-04-08T01:47:22.439Z,99170.45
2023-04-08T01:49:50.011Z,99176.54
2023-04-08T01:52:17.258Z,99173.70
2023-04-08T01:54:45.466Z,99176.92
2023-04-08T01:57:15.157Z,99176.55
2023-04-08T01:59:41.828Z,99178.43
2023-04-08T02:02:08.746Z,99179.95
2023-04-08T02:04:35.901Z,99183.17
2023-04-08T02:07:02.950Z,99182.16
2023-04-08T02:09:29.995Z,99180.29
2023-04-08T02:11:57.518Z,99180.45
2023-04-08T02:14:25.750Z,99177.23
2023-04-08T02:16:55.749Z,99178.05
2023-04-08T02:19:29.019Z,99176.83
2023-04-08T02:22:06.108Z,99181.25
2023-04-08T02:24:33.637Z,99179.67
2023-04-08T02:27:00.636Z,99182.06
2023-04-08T02:29:27.284Z,99185.85
2023-04-08T02:31:55.758Z,99185.54
2023-04-08T02:34:22.722Z,99184.89
2023-04-08T02:36:50.596Z,99181.64
2023-04-08T02:39:18.975Z,99179.59
2023-04-08T02:41:48.286Z,99182.16
2023-04-08T02:44:15.129Z,99181.80
2023-04-08T02:46:42.807Z,99181.27
2023-04-08T02:49:09.743Z,99181.58
2023-04-08T02:51:36.743Z,99182.77
2023-04-08T02:54:07.776Z,99184.15
2023-04-08T02:56:34.906Z,99185.02
2023-04-08T02:59:01.568Z,99182.27
2023-04-08T03:01:28.364Z,99182.13
2023-04-08T03:03:56.419Z,99185.92
2023-04-08T03:08:22.515Z,99187.70
2023-04-08T03:10:51.106Z,99193.02
2023-04-08T03:13:19.908Z,99192.71
2023-04-08T03:15:48.408Z,99192.40
2023-04-08T03:18:17.838Z,99192.95
2023-04-08T03:20:46.093Z,99187.80
2023-04-08T03:23:14.394Z,99192.09
2023-04-08T03:25:42.965Z,99193.98
2023-04-08T03:28:11.227Z,99197.48
2023-04-08T03:30:39.544Z,99194.09
2023-04-08T03:33:10.163Z,99198.95
2023-04-08T03:35:39.110Z,99201.05
2023-04-08T03:38:07.689Z,99201.41
2023-04-08T03:40:36.066Z,99198.45
2023-04-08T03:43:06.708Z,99201.20
2023-04-08T03:45:35.118Z,99204.13
2023-04-08T03:48:04.401Z,99205.50
2023-04-08T03:50:32.615Z,99214.30
2023-04-08T03:53:01.607Z,99211.41
2023-04-08T03:55:29.782Z,99212.13
2023-04-08T03:57:58.790Z,99215.07
2023-04-08T04:00:27.174Z,99209.25
2023-04-08T04:02:56.593Z,99216.83
2023-04-08T04:05:25.422Z,99221.46
2023-04-08T04:07:54.085Z,99223.02
2023-04-08T04:10:22.756Z,99224.23
2023-04-08T04:12:51.143Z,99228.55
2023-04-08T04:15:27.909Z,99231.30
2023-04-08T04:17:57.152Z,99234.55
2023-04-08T04:20:26.075Z,99233.36
2023-04-08T04:22:55.359Z,99234.23
2023-04-08T04:25:23.980Z,99239.23
2023-04-08T04:27:59.182Z,99241.16
2023-04-08T04:30:32.040Z,99238.28
2023-04-08T04:33:06.120Z,99241.19
2023-04-08T04:35:34.361Z,99243.09
2023-04-08T04:38:03.115Z,99247.38
2023-04-08T04:40:31.823Z,99247.89
2023-04-08T04:42:59.929Z,99247.68
2023-04-08T04:45:31.217Z,99249.56
2023-04-08T04:48:00.340Z,99250.46
2023-04-08T04:50:28.771Z,99255.66
2023-04-08T04:53:03.154Z,99259.33
2023-04-08T04:55:32.257Z,99257.86
2023-04-08T04:58:00.410Z,99263.79
2023-04-08T05:00:28.901Z,99265.94
2023-04-08T05:02:58.220Z,99267.88
2023-04-08T05:05:26.714Z,99269.33
2023-04-08T05:07:56.879Z,99273.36
2023-04-08T05:10:25.492Z,99275.16
2023-04-08T05:12:58.410Z,99274.04
2023-04-08T05:15:26.943Z,99273.09
2023-04-08T05:17:56.585Z,99278.51
2023-04-08T05:20:24.728Z,99277.58
2023-04-08T05:22:56.307Z,99279.02
2023-04-08T05:25:24.482Z,99278.94
2023-04-08T05:27:52.947Z,99277.69
2023-04-08T05:30:21.169Z,99277.77
2023-04-08T05:32:50.961Z,99275.80
2023-04-08T05:35:19.029Z,99276.41
2023-04-08T05:37:47.124Z,99273.93
2023-04-08T05:40:15.327Z,99276.59
2023-04-08T05:42:43.820Z,99274.26
2023-04-08T05:45:11.864Z,99276.03
2023-04-08T05:47:40.268Z,99278.67
2023-04-08T05:50:09.568Z,99278.73
2023-04-08T05:52:37.849Z,99283.79
2023-04-08T05:55:06.639Z,99283.99
2023-04-08T05:57:36.246Z,99286.59
2023-04-08T06:00:08.735Z,99288.19
2023-04-08T06:02:39.406Z,99287.03
2023-04-08T06:05:08.819Z,99286.23
2023-04-08T06:07:37.269Z,99287.30
2023-04-08T06:10:07.269Z,99289.09
2023-04-08T06:12:39.384Z,99292.73
2023-04-08T06:15:08.173Z,99294.26
2023-04-08T06:17:37.447Z,99299.09
2023-04-08T06:20:06.669Z,99299.62
2023-04-08T06:22:38.104Z,99297.95
2023-04-08T06:25:07.271Z,99301.78
2023-04-08T06:27:36.245Z,99299.08
2023-04-08T06:30:11.747Z,99304.45
2023-04-08T06:32:40.974Z,99304.98
2023-04-08T06:35:09.182Z,99308.45
2023-04-08T06:37:38.929Z,99311.77
2023-04-08T06:40:07.822Z,99313.69
2023-04-08T06:42:38.459Z,99316.48
2023-04-08T06:45:11.384Z,99310.50
2023-04-08T06:47:40.474Z,99316.42
2023-04-08T06:50:09.299Z,99315.95
2023-04-08T06:52:37.382Z,99314.95
2023-04-08T06:55:06.401Z,99316.52
2023-04-08T06:57:34.400Z,99322.72
2023-04-08T07:00:02.888Z,99323.21
2023-04-08T07:02:35.057Z,99326.95
2023-04-08T07:05:04.095Z,99335.67
2023-04-08T07:07:32.477Z,99338.21
2023-04-08T15:26:37.371Z,99317.77
2023-04-08T15:29:06.616Z,99321.98
2023-04-08T15:31:35.339Z,99323.20
2023-04-08T15:34:03.745Z,99321.65
2023-04-08T15:36:32.668Z,99322.04
2023-04-08T15:39:01.051Z,99318.59
2023-04-08T15:41:30.065Z,99325.40
2023-04-08T15:43:58.251Z,99327.92
2023-04-08T15:54:05.774Z,99323.33
2023-04-08T15:56:33.905Z,99326.50
2023-04-08T15:59:03.024Z,99332.60
2023-04-08T16:01:32.605Z,99335.06
2023-04-08T16:04:02.634Z,99335.09
2023-04-08T16:06:31.420Z,99332.66
2023-04-08T16:09:00.276Z,99336.86
2023-04-08T16:11:36.046Z,99340.85
2023-04-08T16:14:07.006Z,99344.17
2023-04-08T16:16:35.543Z,99344.70
2023-04-08T16:19:03.910Z,99346.25
2023-04-08T16:21:31.945Z,99349.71
2023-04-08T16:24:01.660Z,99348.69
2023-04-08T16:26:31.295Z,99353.20
2023-04-08T16:28:59.801Z,99349.77
2023-04-08T16:31:28.643Z,99351.66
2023-04-08T16:33:57.011Z,99351.66
2023-04-08T16:36:25.263Z,99351.48
2023-04-08T16:38:54.811Z,99352.88
2023-04-08T16:41:23.348Z,99349.95
2023-04-08T16:43:51.681Z,99349.77
2023-04-08T16:46:21.075Z,99353.75
2023-04-08T16:48:49.319Z,99356.01
2023-04-08T16:51:18.818Z,99361.02
2023-04-08T16:53:46.913Z,99359.80
2023-04-08T16:56:16.418Z,99364.31
2023-04-08T16:58:45.551Z,99368.11
2023-04-08T17:01:14.223Z,99368.29
2023-04-08T17:03:44.803Z,99373.13
2023-04-08T17:06:13.785Z,99370.18
2023-04-08T17:08:49.147Z,99373.81
2023-04-08T17:11:18.033Z,99376.73
2023-04-08T17:13:47.153Z,99379.17
2023-04-08T17:16:17.460Z,99378.47
2023-04-08T17:18:46.917Z,99383.31
2023-04-08T17:21:15.726Z,99384.86
2023-04-08T17:23:52.201Z,99385.02
2023-04-08T17:26:22.328Z,99384.15
2023-04-08T17:28:50.561Z,99389.15
2023-04-08T17:31:19.213Z,99389.84
2023-04-08T17:33:48.006Z,99394.33
2023-04-08T17:36:17.630Z,99399.33
2023-04-08T17:38:49.334Z,99401.58
2023-04-08T17:41:25.100Z,99403.83
2023-04-08T17:44:06.760Z,99408.48
2023-04-08T17:46:35.567Z,99413.64
2023-04-08T17:49:07.361Z,99410.67
2023-04-08T17:51:37.273Z,99407.59
2023-04-08T17:54:05.963Z,99406.70
2023-04-08T17:56:40.021Z,99409.27
2023-04-08T17:59:08.233Z,99408.90
2023-04-08T18:01:41.467Z,99409.92
2023-04-08T18:04:12.457Z,99407.68
2023-04-08T18:06:41.209Z,99407.16
2023-04-08T18:09:12.270Z,99409.05
2023-04-08T18:11:41.416Z,99413.55
2023-04-08T18:14:09.812Z,99416.99
2023-04-08T18:24:24.447Z,99429.61
2023-04-08T18:27:01.500Z,99433.74
2023-04-08T18:29:33.324Z,99431.50
2023-04-08T18:32:02.297Z,99433.39
2023-04-08T18:34:32.147Z,99434.91
2023-04-08T18:37:05.104Z,99434.03
2023-04-08T18:39:33.374Z,99437.09
2023-04-08T18:42:01.634Z,99433.42
2023-04-08T18:44:30.544Z,99431.31
2023-04-08T18:46:59.168Z,99430.58
2023-04-08T18:49:31.004Z,99433.29
2023-04-08T18:52:02.901Z,99436.85
2023-04-08T18:54:32.187Z,99437.48
2023-04-08T18:57:02.855Z,99437.24
2023-04-08T18:59:32.732Z,99438.92
2023-04-08T19:02:01.515Z,99441.13
2023-04-08T19:04:30.815Z,99441.63
2023-04-08T19:06:58.918Z,99438.14
2023-04-08T19:09:27.015Z,99437.77
2023-04-08T19:11:55.454Z,99435.68
2023-04-08T19:14:24.800Z,99438.95
2023-04-08T19:16:56.888Z,99440.48
2023-04-08T19:19:26.121Z,99436.54
2023-04-08T19:21:54.226Z,99438.80
2023-04-08T19:24:26.847Z,99434.50
2023-04-08T19:26:55.498Z,99435.17
2023-04-08T19:29:24.591Z,99436.19
2023-04-08T19:31:53.817Z,99437.54
2023-04-08T19:34:22.008Z,99441.12
2023-04-08T19:36:50.830Z,99440.23
2023-04-08T19:39:20.018Z,99441.60
2023-04-08T19:41:48.102Z,99441.59
2023-04-08T19:44:16.639Z,99442.06
2023-04-08T19:46:44.842Z,99440.34
2023-04-08T19:49:12.881Z,99440.86
2023-04-08T19:51:40.967Z,99441.73
2023-04-08T19:54:14.226Z,99438.12
2023-04-08T19:56:44.133Z,99443.65
2023-04-08T19:59:12.423Z,99438.13
2023-04-08T20:01:43.086Z,99441.55
2023-04-08T20:04:12.091Z,99442.56
2023-04-08T20:06:40.517Z,99442.52
2023-04-08T20:09:08.731Z,99444.00
2023-04-08T20:11:37.288Z,99446.02
2023-04-08T20:14:10.008Z,99447.69
2023-04-08T20:16:38.258Z,99449.73
2023-04-08T20:19:14.032Z,99451.24
2023-04-08T20:21:43.400Z,99452.27
2023-04-08T20:24:12.752Z,99451.94
2023-04-08T20:26:40.912Z,99452.65
2023-04-08T20:29:09.513Z,99449.52
2023-04-08T20:31:38.056Z,99456.16
2023-04-08T20:34:09.583Z,99457.67
2023-04-08T20:36:39.859Z,99457.83
2023-04-08T20:46:47.901Z,99471.38
2023-04-08T20:49:18.823Z,99472.88
2023-04-08T20:51:47.217Z,99474.77
2023-04-08T20:54:15.900Z,99474.93
2023-04-08T20:56:44.503Z,99474.08
2023-04-08T20:59:17.394Z,99470.80
2023-04-08T21:01:48.130Z,99475.61
2023-04-08T21:04:16.749Z,99475.96
2023-04-08T21:06:45.354Z,99478.49
2023-04-08T21:09:15.002Z,99480.70
2023-04-08T21:11:43.753Z,99481.17
2023-04-08T21:14:15.858Z,99483.03
2023-04-08T21:16:44.086Z,99484.05
2023-04-08T21:19:12.907Z,99484.02
2023-04-08T21:21:41.927Z,99488.46
2023-04-08T21:24:10.764Z,99490.49
2023-04-08T21:26:38.915Z,99488.58
2023-04-08T21:29:07.181Z,99488.77
2023-04-08T21:31:35.718Z,99489.66
2023-04-08T21:34:07.242Z,99491.77
2023-04-08T21:36:37.475Z,99491.64
2023-04-08T21:39:06.314Z,99492.70
2023-04-08T21:41:34.658Z,99494.94
2023-04-08T21:44:03.701Z,99492.02
2023-04-08T21:46:31.847Z,99491.52
2023-04-08T21:49:00.835Z,99487.92
2023-04-08T21:51:29.239Z,99482.73
2023-04-08T21:53:57.303Z,99485.98
2023-04-08T21:56:25.687Z,99484.37
2023-04-08T21:58:53.880Z,99483.37
2023-04-08T22:01:22.125Z,99482.73
2023-04-08T22:03:53.800Z,99483.46
2023-04-08T22:06:31.479Z,99484.02
2023-04-08T22:09:00.880Z,99479.92
2023-04-08T22:11:29.121Z,99478.05
2023-04-08T22:13:57.650Z,99482.55
2023-04-08T22:16:26.324Z,99485.30
2023-04-08T22:18:54.963Z,99485.10
2023-04-08T22:21:30.130Z,99488.67
2023-04-08T22:23:58.902Z,99491.92
2023-04-08T22:26:27.675Z,99497.61
2023-04-08T22:29:00.222Z,99496.77
2023-04-08T22:31:29.602Z,99495.95
2023-04-08T22:33:58.600Z,99493.08
2023-04-08T22:36:27.312Z,99495.88
2023-04-08T22:38:55.590Z,99492.67
2023-04-08T22:41:24.601Z,99495.98
2023-04-08T22:43:53.700Z,99493.95
2023-04-08T22:46:22.248Z,99495.89
2023-04-08T22:48:50.918Z,99499.38
2023-04-08T22:51:19.290Z,99498.04
2023-04-08T22:53:47.450Z,99500.44
2023-04-08T22:56:16.088Z,99496.66
2023-04-08T22:58:44.145Z,99496.16
2023-04-08T23:01:13.758Z,99495.86
2023-04-08T23:03:43.799Z,99499.34
2023-04-08T23:06:12.268Z,99500.04
2023-04-08T23:08:41.777Z,99500.73
2023-04-08T23:11:09.941Z,99502.18
2023-04-08T23:13:39.364Z,99501.58
2023-04-08T23:16:14.174Z,99502.84
2023-04-08T23:18:43.163Z,99506.34
2023-04-08T23:21:20.369Z,99505.20
2023-04-08T23:23:49.348Z,99506.77
2023-04-08T23:26:20.964Z,99507.86
2023-04-08T23:28:53.921Z,99506.54
2023-04-08T23:31:22.276Z,99501.92
2023-04-08T23:33:51.028Z,99503.68
2023-04-08T23:36:23.001Z,99502.92
2023-04-08T23:38:51.780Z,99505.36
2023-04-08T23:41:20.703Z,99504.07
2023-04-08T23:43:54.135Z,99498.98
2023-04-08T23:46:23.340Z,99497.19
2023-04-08T23:48:57.483Z,99495.91
2023-04-08T23:51:26.705Z,99493.79
2023-04-08T23:53:54.777Z,99493.73
2023-04-08T23:56:26.351Z,99493.84
2023-04-08T23:58:54.653Z,99491.53
